createdAt,value
2018-05-17T00:00:06.998Z,4.828032
2018-05-17T00:00:19.586Z,6.437376
2018-05-17T00:00:32.038Z,6.437376
2018-05-17T00:00:44.482Z,6.437376
2018-05-17T00:00:56.903Z,6.437376
2018-05-17T00:01:09.437Z,6.437376
2018-05-17T00:01:21.838Z,3.218688
2018-05-17T00:01:34.245Z,6.437376
2018-05-17T00:01:46.654Z,6.437376
2018-05-17T00:01:59.054Z,3.218688
2018-05-17T00:02:11.497Z,3.218688
2018-05-17T00:02:23.906Z,1.609344
2018-05-17T00:02:36.311Z,3.218688
2018-05-17T00:02:48.736Z,6.437376
2018-05-17T00:03:01.158Z,6.437376
2018-05-17T00:03:13.575Z,1.609344
2018-05-17T00:03:25.975Z,3.218688
2018-05-17T00:03:38.388Z,4.828032
2018-05-17T00:03:50.808Z,3.218688
2018-05-17T00:04:03.216Z,1.609344
2018-05-17T00:04:15.712Z,6.437376
2018-05-17T00:04:28.215Z,6.437376
2018-05-17T00:04:40.636Z,6.437376
2018-05-17T00:04:53.045Z,8.04672
2018-05-17T00:05:05.454Z,6.437376
2018-05-17T00:05:17.966Z,1.609344
2018-05-17T00:05:30.376Z,0
2018-05-17T00:05:42.787Z,0
2018-05-17T00:05:55.213Z,3.218688
2018-05-17T00:06:07.757Z,6.437376
2018-05-17T00:06:20.174Z,6.437376
2018-05-17T00:06:32.583Z,6.437376
2018-05-17T00:06:45.008Z,6.437376
2018-05-17T00:06:57.424Z,9.656064
2018-05-17T00:07:09.849Z,9.656064
2018-05-17T00:07:22.249Z,9.656064
2018-05-17T00:07:34.652Z,8.04672
2018-05-17T00:07:47.139Z,4.828032
2018-05-17T00:07:59.563Z,3.218688
2018-05-17T00:08:11.979Z,8.04672
2018-05-17T00:08:24.385Z,6.437376
2018-05-17T00:08:36.796Z,4.828032
2018-05-17T00:08:49.210Z,9.656064
2018-05-17T00:09:01.648Z,8.04672
2018-05-17T00:09:14.056Z,8.04672
2018-05-17T00:09:26.468Z,6.437376
2018-05-17T00:09:38.867Z,3.218688
2018-05-17T00:09:51.298Z,9.656064
2018-05-17T00:10:03.705Z,8.04672
2018-05-17T00:10:16.193Z,6.437376
2018-05-17T00:10:28.612Z,1.609344
2018-05-17T00:10:41.035Z,8.04672
2018-05-17T00:10:53.444Z,8.04672
2018-05-17T00:11:05.849Z,8.04672
2018-05-17T00:11:18.291Z,8.04672
2018-05-17T00:11:30.774Z,9.656064
2018-05-17T00:11:43.192Z,9.656064
2018-05-17T00:11:55.784Z,6.437376
2018-05-17T00:12:08.209Z,3.218688
2018-05-17T00:12:20.632Z,3.218688
2018-05-17T00:12:33.056Z,3.218688
2018-05-17T00:12:45.471Z,3.218688
2018-05-17T00:12:57.865Z,1.609344
2018-05-17T00:13:10.378Z,3.218688
2018-05-17T00:13:22.782Z,12.874752
2018-05-17T00:13:35.196Z,8.04672
2018-05-17T00:13:47.638Z,9.656064
2018-05-17T00:14:00.171Z,6.437376
2018-05-17T00:14:12.591Z,8.04672
2018-05-17T00:14:25.000Z,6.437376
2018-05-17T00:14:37.392Z,6.437376
2018-05-17T00:14:49.810Z,8.04672
2018-05-17T00:15:02.226Z,6.437376
2018-05-17T00:15:14.636Z,3.218688
2018-05-17T00:15:27.066Z,1.609344
2018-05-17T00:15:39.709Z,6.437376
2018-05-17T00:15:52.204Z,8.04672
2018-05-17T00:16:04.611Z,6.437376
2018-05-17T00:16:17.019Z,8.04672
2018-05-17T00:16:29.423Z,3.218688
2018-05-17T00:16:42.003Z,3.218688
2018-05-17T00:16:54.401Z,3.218688
2018-05-17T00:17:06.813Z,6.437376
2018-05-17T00:17:19.231Z,3.218688
2018-05-17T00:17:31.652Z,3.218688
2018-05-17T00:17:44.055Z,4.828032
2018-05-17T00:17:56.461Z,4.828032
2018-05-17T00:18:08.873Z,3.218688
2018-05-17T00:18:21.420Z,6.437376
2018-05-17T00:18:33.827Z,4.828032
2018-05-17T00:18:46.239Z,3.218688
2018-05-17T00:18:58.787Z,4.828032
2018-05-17T00:19:11.205Z,1.609344
2018-05-17T00:19:23.623Z,6.437376
2018-05-17T00:19:36.026Z,6.437376
2018-05-17T00:19:48.441Z,3.218688
2018-05-17T00:20:00.854Z,1.609344
2018-05-17T00:20:13.293Z,1.609344
2018-05-17T00:20:25.751Z,1.609344
2018-05-17T00:20:38.155Z,1.609344
2018-05-17T00:20:50.553Z,0
2018-05-17T00:21:02.963Z,4.828032
2018-05-17T00:21:15.441Z,14.484096
2018-05-17T00:21:28.024Z,9.656064
2018-05-17T00:21:40.431Z,8.04672
2018-05-17T00:21:52.831Z,3.218688
2018-05-17T00:22:05.227Z,3.218688
2018-05-17T00:22:17.626Z,4.828032
2018-05-17T00:22:30.198Z,4.828032
2018-05-17T00:22:42.666Z,8.04672
2018-05-17T00:22:55.169Z,6.437376
2018-05-17T00:23:07.582Z,4.828032
2018-05-17T00:23:19.999Z,3.218688
2018-05-17T00:23:32.413Z,4.828032
2018-05-17T00:23:44.826Z,3.218688
2018-05-17T00:23:57.240Z,3.218688
2018-05-17T00:24:09.646Z,4.828032
2018-05-17T00:24:22.163Z,4.828032
2018-05-17T00:24:34.571Z,8.04672
2018-05-17T00:24:47.137Z,9.656064
2018-05-17T00:24:59.548Z,4.828032
2018-05-17T00:25:11.950Z,1.609344
2018-05-17T00:25:24.363Z,3.218688
2018-05-17T00:25:36.788Z,3.218688
2018-05-17T00:25:49.190Z,6.437376
2018-05-17T00:26:01.605Z,8.04672
2018-05-17T00:26:14.037Z,6.437376
2018-05-17T00:26:26.591Z,6.437376
2018-05-17T00:26:39.027Z,6.437376
2018-05-17T00:26:51.444Z,6.437376
2018-05-17T00:27:03.859Z,1.609344
2018-05-17T00:27:16.259Z,1.609344
2018-05-17T00:27:28.667Z,1.609344
2018-05-17T00:27:41.085Z,6.437376
2018-05-17T00:27:53.504Z,3.218688
2018-05-17T00:28:05.931Z,6.437376
2018-05-17T00:28:18.364Z,6.437376
2018-05-17T00:28:30.854Z,9.656064
2018-05-17T00:28:43.279Z,8.04672
2018-05-17T00:28:55.703Z,8.04672
2018-05-17T00:29:08.143Z,4.828032
2018-05-17T00:29:20.554Z,3.218688
2018-05-17T00:29:33.009Z,4.828032
2018-05-17T00:29:45.428Z,3.218688
2018-05-17T00:29:57.833Z,3.218688
2018-05-17T00:30:10.306Z,1.609344
2018-05-17T00:30:22.728Z,3.218688
2018-05-17T00:30:35.144Z,3.218688
2018-05-17T00:30:47.557Z,3.218688
2018-05-17T00:30:59.967Z,6.437376
2018-05-17T00:31:12.398Z,3.218688
2018-05-17T00:31:24.838Z,6.437376
2018-05-17T00:31:37.254Z,9.656064
2018-05-17T00:31:49.681Z,6.437376
2018-05-17T00:32:02.092Z,1.609344
2018-05-17T00:32:14.515Z,1.609344
2018-05-17T00:32:26.916Z,1.609344
2018-05-17T00:32:39.329Z,1.609344
2018-05-17T00:32:51.752Z,0
2018-05-17T00:33:04.148Z,1.609344
2018-05-17T00:33:16.572Z,0
2018-05-17T00:33:28.974Z,1.609344
2018-05-17T00:33:41.395Z,1.609344
2018-05-17T00:33:53.886Z,6.437376
2018-05-17T00:34:06.302Z,3.218688
2018-05-17T00:34:18.705Z,6.437376
2018-05-17T00:34:31.134Z,6.437376
2018-05-17T00:34:43.560Z,4.828032
2018-05-17T00:34:55.974Z,3.218688
2018-05-17T00:35:08.457Z,1.609344
2018-05-17T00:35:20.881Z,3.218688
2018-05-17T00:35:33.290Z,6.437376
2018-05-17T00:35:45.934Z,6.437376
2018-05-17T00:35:58.502Z,12.874752
2018-05-17T00:36:10.909Z,11.265408
2018-05-17T00:36:23.409Z,9.656064
2018-05-17T00:36:35.826Z,12.874752
2018-05-17T00:36:48.235Z,9.656064
2018-05-17T00:37:00.644Z,8.04672
2018-05-17T00:37:13.062Z,9.656064
2018-05-17T00:37:25.488Z,8.04672
2018-05-17T00:37:37.899Z,9.656064
2018-05-17T00:37:50.322Z,6.437376
2018-05-17T00:38:02.729Z,6.437376
2018-05-17T00:38:15.137Z,6.437376
2018-05-17T00:38:27.548Z,3.218688
2018-05-17T00:38:39.968Z,3.218688
2018-05-17T00:38:52.385Z,1.609344
2018-05-17T00:39:04.790Z,1.609344
2018-05-17T00:39:17.210Z,1.609344
2018-05-17T00:39:29.645Z,3.218688
2018-05-17T00:39:42.058Z,1.609344
2018-05-17T00:39:54.568Z,3.218688
2018-05-17T00:40:06.995Z,3.218688
2018-05-17T00:40:19.433Z,3.218688
2018-05-17T00:40:31.848Z,6.437376
2018-05-17T00:40:44.276Z,8.04672
2018-05-17T00:40:56.680Z,4.828032
2018-05-17T00:41:09.095Z,3.218688
2018-05-17T00:41:21.501Z,6.437376
2018-05-17T00:41:33.906Z,6.437376
2018-05-17T00:41:46.322Z,6.437376
2018-05-17T00:41:58.730Z,6.437376
2018-05-17T00:42:11.145Z,9.656064
2018-05-17T00:42:23.564Z,6.437376
2018-05-17T00:42:36.060Z,3.218688
2018-05-17T00:42:48.469Z,3.218688
2018-05-17T00:43:00.890Z,1.609344
2018-05-17T00:43:13.294Z,6.437376
2018-05-17T00:43:25.693Z,6.437376
2018-05-17T00:43:38.120Z,6.437376
2018-05-17T00:43:50.545Z,4.828032
2018-05-17T00:44:02.945Z,1.609344
2018-05-17T00:44:15.366Z,6.437376
2018-05-17T00:44:27.881Z,4.828032
2018-05-17T00:44:40.281Z,6.437376
2018-05-17T00:44:52.701Z,6.437376
2018-05-17T00:45:05.124Z,6.437376
2018-05-17T00:45:17.538Z,6.437376
2018-05-17T00:45:29.935Z,8.04672
2018-05-17T00:45:42.376Z,8.04672
2018-05-17T00:45:54.795Z,8.04672
2018-05-17T00:46:07.196Z,8.04672
2018-05-17T00:46:19.761Z,6.437376
2018-05-17T00:46:32.173Z,8.04672
2018-05-17T00:46:44.588Z,6.437376
2018-05-17T00:46:57.008Z,4.828032
2018-05-17T00:47:09.431Z,6.437376
2018-05-17T00:47:21.923Z,3.218688
2018-05-17T00:47:34.331Z,4.828032
2018-05-17T00:47:46.728Z,6.437376
2018-05-17T00:47:59.146Z,4.828032
2018-05-17T00:48:11.590Z,3.218688
2018-05-17T00:48:24.243Z,3.218688
2018-05-17T00:48:36.742Z,3.218688
2018-05-17T00:48:49.173Z,3.218688
2018-05-17T00:49:01.653Z,1.609344
2018-05-17T00:49:14.067Z,3.218688
2018-05-17T00:49:26.537Z,8.04672
2018-05-17T00:49:38.977Z,6.437376
2018-05-17T00:49:51.401Z,4.828032
2018-05-17T00:50:03.835Z,3.218688
2018-05-17T00:50:16.243Z,3.218688
2018-05-17T00:50:28.675Z,3.218688
2018-05-17T00:50:41.095Z,1.609344
2018-05-17T00:50:53.513Z,1.609344
2018-05-17T00:51:05.929Z,1.609344
2018-05-17T00:51:18.342Z,1.609344
2018-05-17T00:51:30.741Z,3.218688
2018-05-17T00:51:43.147Z,3.218688
2018-05-17T00:51:55.575Z,3.218688
2018-05-17T00:52:07.997Z,4.828032
2018-05-17T00:52:20.689Z,8.04672
2018-05-17T00:52:33.763Z,6.437376
2018-05-17T00:52:46.178Z,6.437376
2018-05-17T00:52:58.588Z,6.437376
2018-05-17T00:53:10.983Z,6.437376
2018-05-17T00:53:23.390Z,3.218688
2018-05-17T00:53:35.801Z,8.04672
2018-05-17T00:53:48.207Z,3.218688
2018-05-17T00:54:01.183Z,1.609344
2018-05-17T00:54:13.618Z,1.609344
2018-05-17T00:54:26.046Z,1.609344
2018-05-17T00:54:38.452Z,6.437376
2018-05-17T00:54:50.888Z,6.437376
2018-05-17T00:55:03.303Z,3.218688
2018-05-17T00:55:15.771Z,3.218688
2018-05-17T00:55:28.192Z,1.609344
2018-05-17T00:55:40.602Z,1.609344
2018-05-17T00:55:53.006Z,0
2018-05-17T00:56:05.424Z,3.218688
2018-05-17T00:56:17.839Z,6.437376
2018-05-17T00:56:30.262Z,8.04672
2018-05-17T00:56:42.670Z,8.04672
2018-05-17T00:56:55.083Z,4.828032
2018-05-17T00:57:07.490Z,4.828032
2018-05-17T00:57:19.905Z,3.218688
2018-05-17T00:57:32.318Z,1.609344
2018-05-17T00:57:44.738Z,1.609344
2018-05-17T00:57:57.158Z,1.609344
2018-05-17T00:58:09.586Z,3.218688
2018-05-17T00:58:21.994Z,3.218688
2018-05-17T00:58:34.413Z,1.609344
2018-05-17T00:58:46.831Z,3.218688
2018-05-17T00:58:59.329Z,1.609344
2018-05-17T00:59:11.739Z,3.218688
2018-05-17T00:59:24.152Z,3.218688
2018-05-17T00:59:36.601Z,3.218688
2018-05-17T00:59:49.010Z,3.218688
2018-05-17T01:00:01.448Z,1.609344
2018-05-17T01:00:13.983Z,3.218688
2018-05-17T01:00:26.423Z,3.218688
2018-05-17T01:00:38.915Z,1.609344
2018-05-17T01:00:51.368Z,3.218688
2018-05-17T01:01:03.808Z,3.218688
2018-05-17T01:01:16.218Z,1.609344
2018-05-17T01:01:28.628Z,3.218688
2018-05-17T01:01:41.037Z,3.218688
2018-05-17T01:01:53.544Z,3.218688
2018-05-17T01:02:06.020Z,1.609344
2018-05-17T01:02:18.449Z,3.218688
2018-05-17T01:02:30.863Z,1.609344
2018-05-17T01:02:43.289Z,3.218688
2018-05-17T01:02:55.690Z,3.218688
2018-05-17T01:03:08.114Z,1.609344
2018-05-17T01:03:20.526Z,3.218688
2018-05-17T01:03:32.940Z,1.609344
2018-05-17T01:03:45.358Z,1.609344
2018-05-17T01:03:57.801Z,1.609344
2018-05-17T01:04:10.234Z,3.218688
2018-05-17T01:04:22.734Z,3.218688
2018-05-17T01:04:35.154Z,1.609344
2018-05-17T01:04:47.574Z,1.609344
2018-05-17T01:04:59.991Z,6.437376
2018-05-17T01:05:12.415Z,8.04672
2018-05-17T01:05:24.824Z,8.04672
2018-05-17T01:05:37.246Z,11.265408
2018-05-17T01:05:49.725Z,8.04672
2018-05-17T01:06:02.135Z,6.437376
2018-05-17T01:06:14.594Z,6.437376
2018-05-17T01:06:27.001Z,6.437376
2018-05-17T01:06:39.402Z,6.437376
2018-05-17T01:06:51.916Z,6.437376
2018-05-17T01:07:04.366Z,1.609344
2018-05-17T01:07:16.871Z,1.609344
2018-05-17T01:07:29.291Z,3.218688
2018-05-17T01:07:41.694Z,1.609344
2018-05-17T01:07:54.125Z,1.609344
2018-05-17T01:08:06.538Z,1.609344
2018-05-17T01:08:18.953Z,4.828032
2018-05-17T01:08:31.360Z,9.656064
2018-05-17T01:08:43.778Z,8.04672
2018-05-17T01:08:56.197Z,6.437376
2018-05-17T01:09:08.615Z,6.437376
2018-05-17T01:09:21.023Z,3.218688
2018-05-17T01:09:33.436Z,1.609344
2018-05-17T01:09:45.863Z,1.609344
2018-05-17T01:09:58.278Z,4.828032
2018-05-17T01:10:10.704Z,6.437376
2018-05-17T01:10:23.265Z,6.437376
2018-05-17T01:10:35.659Z,6.437376
2018-05-17T01:10:48.081Z,3.218688
2018-05-17T01:11:00.519Z,1.609344
2018-05-17T01:11:12.938Z,3.218688
2018-05-17T01:11:25.356Z,3.218688
2018-05-17T01:11:37.770Z,4.828032
2018-05-17T01:11:50.258Z,6.437376
2018-05-17T01:12:02.672Z,8.04672
2018-05-17T01:12:15.092Z,8.04672
2018-05-17T01:12:27.503Z,6.437376
2018-05-17T01:12:39.940Z,3.218688
2018-05-17T01:12:52.543Z,6.437376
2018-05-17T01:13:04.954Z,4.828032
2018-05-17T01:13:17.361Z,3.218688
2018-05-17T01:13:29.772Z,6.437376
2018-05-17T01:13:42.203Z,9.656064
2018-05-17T01:13:54.740Z,6.437376
2018-05-17T01:14:07.171Z,6.437376
2018-05-17T01:14:19.576Z,6.437376
2018-05-17T01:14:31.990Z,1.609344
2018-05-17T01:14:44.393Z,3.218688
2018-05-17T01:14:56.811Z,8.04672
2018-05-17T01:15:09.213Z,8.04672
2018-05-17T01:15:21.632Z,3.218688
2018-05-17T01:15:34.093Z,3.218688
2018-05-17T01:15:46.651Z,4.828032
2018-05-17T01:15:59.074Z,4.828032
2018-05-17T01:16:11.495Z,3.218688
2018-05-17T01:16:23.905Z,1.609344
2018-05-17T01:16:36.361Z,3.218688
2018-05-17T01:16:48.759Z,3.218688
2018-05-17T01:17:01.168Z,9.656064
2018-05-17T01:17:13.587Z,11.265408
2018-05-17T01:17:26.002Z,9.656064
2018-05-17T01:17:38.418Z,6.437376
2018-05-17T01:17:50.827Z,4.828032
2018-05-17T01:18:03.241Z,1.609344
2018-05-17T01:18:15.811Z,3.218688
2018-05-17T01:18:28.214Z,3.218688
2018-05-17T01:18:40.619Z,6.437376
2018-05-17T01:18:53.039Z,8.04672
2018-05-17T01:19:05.466Z,8.04672
2018-05-17T01:19:17.883Z,8.04672
2018-05-17T01:19:30.313Z,4.828032
2018-05-17T01:19:42.716Z,9.656064
2018-05-17T01:19:55.142Z,8.04672
2018-05-17T01:20:07.548Z,8.04672
2018-05-17T01:20:19.955Z,8.04672
2018-05-17T01:20:32.376Z,6.437376
2018-05-17T01:20:44.812Z,11.265408
2018-05-17T01:20:57.243Z,8.04672
2018-05-17T01:21:09.669Z,6.437376
2018-05-17T01:21:22.069Z,8.04672
2018-05-17T01:21:34.483Z,8.04672
2018-05-17T01:21:46.904Z,8.04672
2018-05-17T01:21:59.330Z,9.656064
2018-05-17T01:22:11.743Z,8.04672
2018-05-17T01:22:24.301Z,6.437376
2018-05-17T01:22:36.727Z,3.218688
2018-05-17T01:22:49.183Z,8.04672
2018-05-17T01:23:01.595Z,8.04672
2018-05-17T01:23:14.028Z,6.437376
2018-05-17T01:23:26.453Z,3.218688
2018-05-17T01:23:38.881Z,6.437376
2018-05-17T01:23:51.314Z,3.218688
2018-05-17T01:24:03.813Z,9.656064
2018-05-17T01:24:16.227Z,9.656064
2018-05-17T01:24:28.653Z,8.04672
2018-05-17T01:24:41.067Z,8.04672
2018-05-17T01:24:53.612Z,3.218688
2018-05-17T01:25:06.073Z,3.218688
2018-05-17T01:25:18.480Z,1.609344
2018-05-17T01:25:30.974Z,1.609344
2018-05-17T01:25:43.407Z,1.609344
2018-05-17T01:25:55.826Z,1.609344
2018-05-17T01:26:08.245Z,3.218688
2018-05-17T01:26:20.708Z,3.218688
2018-05-17T01:26:33.118Z,1.609344
2018-05-17T01:26:45.527Z,1.609344
2018-05-17T01:26:57.944Z,1.609344
2018-05-17T01:27:10.366Z,1.609344
2018-05-17T01:27:22.793Z,1.609344
2018-05-17T01:27:35.214Z,1.609344
2018-05-17T01:27:47.620Z,6.437376
2018-05-17T01:28:00.028Z,4.828032
2018-05-17T01:28:12.455Z,1.609344
2018-05-17T01:28:24.870Z,3.218688
2018-05-17T01:28:37.273Z,1.609344
2018-05-17T01:28:49.674Z,1.609344
2018-05-17T01:29:02.108Z,3.218688
2018-05-17T01:29:14.540Z,4.828032
2018-05-17T01:29:26.948Z,1.609344
2018-05-17T01:29:39.349Z,3.218688
2018-05-17T01:29:51.799Z,6.437376
2018-05-17T01:30:04.239Z,6.437376
2018-05-17T01:30:16.736Z,6.437376
2018-05-17T01:30:29.148Z,9.656064
2018-05-17T01:30:41.556Z,8.04672
2018-05-17T01:30:53.961Z,3.218688
2018-05-17T01:31:06.382Z,3.218688
2018-05-17T01:31:18.791Z,4.828032
2018-05-17T01:31:31.206Z,3.218688
2018-05-17T01:31:43.630Z,6.437376
2018-05-17T01:31:56.054Z,3.218688
2018-05-17T01:32:08.564Z,0
2018-05-17T01:32:20.964Z,1.609344
2018-05-17T01:32:33.379Z,1.609344
2018-05-17T01:32:45.860Z,1.609344
2018-05-17T01:32:58.275Z,1.609344
2018-05-17T01:33:10.694Z,1.609344
2018-05-17T01:33:23.145Z,1.609344
2018-05-17T01:33:35.552Z,3.218688
2018-05-17T01:33:47.975Z,3.218688
2018-05-17T01:34:00.372Z,3.218688
2018-05-17T01:34:12.789Z,4.828032
2018-05-17T01:34:25.199Z,3.218688
2018-05-17T01:34:37.608Z,3.218688
2018-05-17T01:34:50.005Z,4.828032
2018-05-17T01:35:03.028Z,1.609344
2018-05-17T01:35:15.926Z,3.218688
2018-05-17T01:35:28.347Z,3.218688
2018-05-17T01:35:40.773Z,3.218688
2018-05-17T01:35:53.187Z,3.218688
2018-05-17T01:36:05.594Z,3.218688
2018-05-17T01:36:18.024Z,1.609344
2018-05-17T01:36:30.433Z,1.609344
2018-05-17T01:36:42.847Z,0
2018-05-17T01:36:55.239Z,1.609344
2018-05-17T01:37:07.726Z,1.609344
2018-05-17T01:37:20.127Z,6.437376
2018-05-17T01:37:32.539Z,8.04672
2018-05-17T01:37:44.951Z,3.218688
2018-05-17T01:37:57.447Z,3.218688
2018-05-17T01:38:09.860Z,3.218688
2018-05-17T01:38:22.287Z,1.609344
2018-05-17T01:38:34.715Z,6.437376
2018-05-17T01:38:47.136Z,3.218688
2018-05-17T01:38:59.547Z,1.609344
2018-05-17T01:39:11.951Z,3.218688
2018-05-17T01:39:24.436Z,3.218688
2018-05-17T01:39:36.855Z,3.218688
2018-05-17T01:39:49.274Z,3.218688
2018-05-17T01:40:01.790Z,8.04672
2018-05-17T01:40:14.198Z,8.04672
2018-05-17T01:40:26.616Z,9.656064
2018-05-17T01:40:39.023Z,3.218688
2018-05-17T01:40:51.435Z,3.218688
2018-05-17T01:41:03.856Z,1.609344
2018-05-17T01:41:16.277Z,3.218688
2018-05-17T01:41:28.687Z,9.656064
2018-05-17T01:41:41.091Z,9.656064
2018-05-17T01:41:53.507Z,6.437376
2018-05-17T01:42:06.137Z,1.609344
2018-05-17T01:42:19.259Z,1.609344
2018-05-17T01:42:31.671Z,1.609344
2018-05-17T01:42:44.087Z,3.218688
2018-05-17T01:42:56.543Z,3.218688
2018-05-17T01:43:08.965Z,1.609344
2018-05-17T01:43:21.396Z,1.609344
2018-05-17T01:43:33.797Z,1.609344
2018-05-17T01:43:46.203Z,3.218688
2018-05-17T01:43:58.628Z,3.218688
2018-05-17T01:44:11.056Z,3.218688
2018-05-17T01:44:23.497Z,4.828032
2018-05-17T01:44:36.008Z,8.04672
2018-05-17T01:44:48.498Z,6.437376
2018-05-17T01:45:00.927Z,6.437376
2018-05-17T01:45:13.345Z,8.04672
2018-05-17T01:45:25.744Z,6.437376
2018-05-17T01:45:38.196Z,8.04672
2018-05-17T01:45:50.604Z,3.218688
2018-05-17T01:46:03.016Z,1.609344
2018-05-17T01:46:15.548Z,4.828032
2018-05-17T01:46:28.022Z,3.218688
2018-05-17T01:46:40.433Z,3.218688
2018-05-17T01:46:52.840Z,3.218688
2018-05-17T01:47:05.255Z,3.218688
2018-05-17T01:47:17.664Z,1.609344
2018-05-17T01:47:30.071Z,1.609344
2018-05-17T01:47:42.476Z,4.828032
2018-05-17T01:47:54.892Z,4.828032
2018-05-17T01:48:07.319Z,6.437376
2018-05-17T01:48:19.848Z,9.656064
2018-05-17T01:48:32.251Z,9.656064
2018-05-17T01:48:44.666Z,6.437376
2018-05-17T01:48:57.090Z,8.04672
2018-05-17T01:49:09.494Z,6.437376
2018-05-17T01:49:21.897Z,3.218688
2018-05-17T01:49:34.307Z,1.609344
2018-05-17T01:49:46.719Z,0
2018-05-17T01:49:59.211Z,3.218688
2018-05-17T01:50:11.620Z,3.218688
2018-05-17T01:50:24.039Z,3.218688
2018-05-17T01:50:36.457Z,3.218688
2018-05-17T01:50:48.896Z,6.437376
2018-05-17T01:51:01.386Z,8.04672
2018-05-17T01:51:13.806Z,8.04672
2018-05-17T01:51:26.213Z,6.437376
2018-05-17T01:51:38.625Z,6.437376
2018-05-17T01:51:51.015Z,4.828032
2018-05-17T01:52:03.439Z,3.218688
2018-05-17T01:52:15.861Z,1.609344
2018-05-17T01:52:28.350Z,1.609344
2018-05-17T01:52:40.770Z,0
2018-05-17T01:52:53.199Z,0
2018-05-17T01:53:05.606Z,1.609344
2018-05-17T01:53:18.023Z,3.218688
2018-05-17T01:53:30.545Z,1.609344
2018-05-17T01:53:42.950Z,6.437376
2018-05-17T01:53:55.505Z,8.04672
2018-05-17T01:54:07.935Z,6.437376
2018-05-17T01:54:20.332Z,8.04672
2018-05-17T01:54:32.727Z,6.437376
2018-05-17T01:54:45.217Z,6.437376
2018-05-17T01:54:57.709Z,4.828032
2018-05-17T01:55:10.122Z,3.218688
2018-05-17T01:55:22.518Z,3.218688
2018-05-17T01:55:34.926Z,6.437376
2018-05-17T01:55:47.332Z,3.218688
2018-05-17T01:55:59.744Z,1.609344
2018-05-17T01:56:12.160Z,1.609344
2018-05-17T01:56:24.556Z,1.609344
2018-05-17T01:56:37.068Z,1.609344
2018-05-17T01:56:49.486Z,1.609344
2018-05-17T01:57:01.900Z,0
2018-05-17T01:57:14.310Z,0
2018-05-17T01:57:26.726Z,0
2018-05-17T01:57:39.148Z,3.218688
2018-05-17T01:57:51.563Z,3.218688
2018-05-17T01:58:03.971Z,3.218688
2018-05-17T01:58:16.431Z,6.437376
2018-05-17T01:58:28.852Z,3.218688
2018-05-17T01:58:41.260Z,3.218688
2018-05-17T01:58:53.987Z,3.218688
2018-05-17T01:59:06.463Z,6.437376
2018-05-17T01:59:18.888Z,4.828032
2018-05-17T01:59:31.299Z,3.218688
2018-05-17T01:59:43.706Z,3.218688
2018-05-17T01:59:56.109Z,1.609344
2018-05-17T02:00:08.514Z,3.218688
2018-05-17T02:00:21.484Z,1.609344
2018-05-17T02:00:33.928Z,0
2018-05-17T02:00:46.464Z,1.609344
2018-05-17T02:00:58.899Z,1.609344
2018-05-17T02:01:11.325Z,1.609344
2018-05-17T02:01:23.770Z,1.609344
2018-05-17T02:01:36.191Z,1.609344
2018-05-17T02:01:48.616Z,1.609344
2018-05-17T02:02:01.034Z,3.218688
2018-05-17T02:02:13.438Z,3.218688
2018-05-17T02:02:25.846Z,4.828032
2018-05-17T02:02:38.279Z,6.437376
2018-05-17T02:02:50.686Z,9.656064
2018-05-17T02:03:03.100Z,6.437376
2018-05-17T02:03:15.514Z,8.04672
2018-05-17T02:03:27.911Z,6.437376
2018-05-17T02:03:40.356Z,6.437376
2018-05-17T02:03:52.773Z,1.609344
2018-05-17T02:04:05.206Z,3.218688
2018-05-17T02:04:17.617Z,3.218688
2018-05-17T02:04:30.026Z,3.218688
2018-05-17T02:04:42.434Z,3.218688
2018-05-17T02:04:54.926Z,3.218688
2018-05-17T02:05:07.353Z,1.609344
2018-05-17T02:05:19.767Z,4.828032
2018-05-17T02:05:32.259Z,8.04672
2018-05-17T02:05:44.680Z,6.437376
2018-05-17T02:05:57.190Z,4.828032
2018-05-17T02:06:09.635Z,6.437376
2018-05-17T02:06:22.132Z,3.218688
2018-05-17T02:06:34.547Z,1.609344
2018-05-17T02:06:46.950Z,1.609344
2018-05-17T02:06:59.365Z,6.437376
2018-05-17T02:07:11.775Z,6.437376
2018-05-17T02:07:24.176Z,6.437376
2018-05-17T02:07:36.585Z,6.437376
2018-05-17T02:07:49.016Z,6.437376
2018-05-17T02:08:01.438Z,1.609344
2018-05-17T02:08:13.873Z,1.609344
2018-05-17T02:08:26.359Z,1.609344
2018-05-17T02:08:38.775Z,1.609344
2018-05-17T02:08:51.188Z,1.609344
2018-05-17T02:09:03.588Z,3.218688
2018-05-17T02:09:16.007Z,3.218688
2018-05-17T02:09:28.498Z,3.218688
2018-05-17T02:09:40.916Z,1.609344
2018-05-17T02:09:53.476Z,3.218688
2018-05-17T02:10:05.899Z,6.437376
2018-05-17T02:10:18.317Z,3.218688
2018-05-17T02:10:30.736Z,3.218688
2018-05-17T02:10:43.151Z,3.218688
2018-05-17T02:10:55.562Z,1.609344
2018-05-17T02:11:07.989Z,1.609344
2018-05-17T02:11:20.470Z,1.609344
2018-05-17T02:11:32.889Z,1.609344
2018-05-17T02:11:45.304Z,1.609344
2018-05-17T02:11:57.943Z,3.218688
2018-05-17T02:12:10.373Z,6.437376
2018-05-17T02:12:22.784Z,6.437376
2018-05-17T02:12:35.183Z,9.656064
2018-05-17T02:12:47.586Z,6.437376
2018-05-17T02:13:00.023Z,3.218688
2018-05-17T02:13:12.442Z,6.437376
2018-05-17T02:13:24.842Z,6.437376
2018-05-17T02:13:37.313Z,6.437376
2018-05-17T02:13:49.919Z,3.218688
2018-05-17T02:14:02.535Z,8.04672
2018-05-17T02:14:14.981Z,6.437376
2018-05-17T02:14:27.407Z,8.04672
2018-05-17T02:14:39.842Z,6.437376
2018-05-17T02:14:52.269Z,6.437376
2018-05-17T02:15:04.755Z,8.04672
2018-05-17T02:15:17.171Z,4.828032
2018-05-17T02:15:29.590Z,4.828032
2018-05-17T02:15:42.288Z,6.437376
2018-05-17T02:15:54.770Z,9.656064
2018-05-17T02:16:07.194Z,9.656064
2018-05-17T02:16:19.617Z,8.04672
2018-05-17T02:16:32.031Z,6.437376
2018-05-17T02:16:44.516Z,6.437376
2018-05-17T02:16:57.005Z,3.218688
2018-05-17T02:17:09.408Z,3.218688
2018-05-17T02:17:21.819Z,6.437376
2018-05-17T02:17:34.240Z,8.04672
2018-05-17T02:17:46.648Z,11.265408
2018-05-17T02:17:59.073Z,6.437376
2018-05-17T02:18:11.491Z,6.437376
2018-05-17T02:18:24.078Z,6.437376
2018-05-17T02:18:36.486Z,6.437376
2018-05-17T02:18:48.901Z,3.218688
2018-05-17T02:19:01.314Z,3.218688
2018-05-17T02:19:14.108Z,3.218688
2018-05-17T02:19:27.034Z,1.609344
2018-05-17T02:19:39.464Z,1.609344
2018-05-17T02:19:51.869Z,3.218688
2018-05-17T02:20:04.295Z,3.218688
2018-05-17T02:20:16.717Z,3.218688
2018-05-17T02:20:29.116Z,3.218688
2018-05-17T02:20:41.664Z,1.609344
2018-05-17T02:20:54.077Z,1.609344
2018-05-17T02:21:06.483Z,3.218688
2018-05-17T02:21:18.903Z,1.609344
2018-05-17T02:21:31.308Z,3.218688
2018-05-17T02:21:43.727Z,1.609344
2018-05-17T02:21:56.162Z,1.609344
2018-05-17T02:22:08.589Z,3.218688
2018-05-17T02:22:21.198Z,6.437376
2018-05-17T02:22:33.602Z,4.828032
2018-05-17T02:22:46.164Z,1.609344
2018-05-17T02:22:58.569Z,1.609344
2018-05-17T02:23:10.979Z,4.828032
2018-05-17T02:23:23.400Z,6.437376
2018-05-17T02:23:35.828Z,3.218688
2018-05-17T02:23:48.240Z,8.04672
2018-05-17T02:24:00.657Z,8.04672
2018-05-17T02:24:13.078Z,11.265408
2018-05-17T02:24:25.479Z,8.04672
2018-05-17T02:24:37.888Z,8.04672
2018-05-17T02:24:50.520Z,6.437376
2018-05-17T02:25:02.935Z,4.828032
2018-05-17T02:25:15.337Z,4.828032
2018-05-17T02:25:27.743Z,6.437376
2018-05-17T02:25:40.233Z,6.437376
2018-05-17T02:25:52.649Z,6.437376
2018-05-17T02:26:05.053Z,6.437376
2018-05-17T02:26:17.470Z,1.609344
2018-05-17T02:26:29.871Z,6.437376
2018-05-17T02:26:42.302Z,3.218688
2018-05-17T02:26:54.716Z,8.04672
2018-05-17T02:27:07.145Z,6.437376